KR-0453 weather

Dadae-dong Heliport
Busan, Busan Gwang'yeogsi, South Korea

Public forecast

Using degrees Celsius for public forecast. Weather courtesy of forecast.io.

Closest aviation weather report (METAR) to Dadae-dong Heliport

Closest report is Gimhae International Airport, 7.5 nm (13.9 km) NNW. Retrieved 2020/02/19 00:00 UTC (1 hour ago):

RKPK 190000Z 32011KT CAVOK 03/M08 Q1029

Closest aviation forecast (TAF) to Dadae-dong Heliport

Closest forecast is Gimhae International Airport, 7.5 nm (13.9 km) NNW. Retrieved 2020-02-19 00:00 UTC (1 hour ago):

TAF RKPK 182300Z 1900/2006 32006KT 9999 FEW030 TX12/1906Z TN01/1922Z